sensor_id;sensor_type;location;lat;lon;timestamp;temperature;humidity
12166;DHT22;6146;48.128;11.476;2022-07-21T00:01:49;21.30;99.90
12166;DHT22;6146;48.128;11.476;2022-07-21T00:04:15;21.40;99.90
12166;DHT22;6146;48.128;11.476;2022-07-21T00:06:42;21.30;99.90
12166;DHT22;6146;48.128;11.476;2022-07-21T00:09:08;21.30;99.90
12166;DHT22;6146;48.128;11.476;2022-07-21T00:11:34;21.20;99.90
12166;DHT22;6146;48.128;11.476;2022-07-21T00:14:00;21.20;99.90
12166;DHT22;6146;48.128;11.476;2022-07-21T00:16:26;21.20;99.90
12166;DHT22;6146;48.128;11.476;2022-07-21T00:18:51;21.10;99.90
12166;DHT22;6146;48.128;11.476;2022-07-21T00:21:17;21.10;99.90
12166;DHT22;6146;48.128;11.476;2022-07-21T00:23:42;21.00;99.90
12166;DHT22;6146;48.128;11.476;2022-07-21T00:26:08;20.90;99.90
12166;DHT22;6146;48.128;11.476;2022-07-21T00:28:33;20.90;99.90
12166;DHT22;6146;48.128;11.476;2022-07-21T00:30:59;20.80;99.90
12166;DHT22;6146;48.128;11.476;2022-07-21T00:33:25;20.70;99.90
12166;DHT22;6146;48.128;11.476;2022-07-21T00:35:50;20.80;99.90
12166;DHT22;6146;48.128;11.476;2022-07-21T00:38:16;20.90;99.90
12166;DHT22;6146;48.128;11.476;2022-07-21T00:40:41;20.80;99.90
12166;DHT22;6146;48.128;11.476;2022-07-21T00:43:07;20.80;99.90
12166;DHT22;6146;48.128;11.476;2022-07-21T00:45:32;20.80;99.90
12166;DHT22;6146;48.128;11.476;2022-07-21T00:47:58;20.80;99.90
12166;DHT22;6146;48.128;11.476;2022-07-21T00:50:24;20.80;99.90
12166;DHT22;6146;48.128;11.476;2022-07-21T00:52:49;20.80;99.90
12166;DHT22;6146;48.128;11.476;2022-07-21T00:55:18;20.90;99.90
12166;DHT22;6146;48.128;11.476;2022-07-21T00:57:44;20.90;99.90
12166;DHT22;6146;48.128;11.476;2022-07-21T01:00:15;21.00;99.90
12166;DHT22;6146;48.128;11.476;2022-07-21T01:02:41;21.00;99.90
12166;DHT22;6146;48.128;11.476;2022-07-21T01:05:10;21.00;99.90
12166;DHT22;6146;48.128;11.476;2022-07-21T01:07:42;21.10;99.90
12166;DHT22;6146;48.128;11.476;2022-07-21T01:10:09;21.10;99.90
12166;DHT22;6146;48.128;11.476;2022-07-21T01:12:36;21.10;99.90
12166;DHT22;6146;48.128;11.476;2022-07-21T01:15:03;21.10;99.90
12166;DHT22;6146;48.128;11.476;2022-07-21T01:17:29;21.00;99.90
12166;DHT22;6146;48.128;11.476;2022-07-21T01:19:55;21.00;99.90
12166;DHT22;6146;48.128;11.476;2022-07-21T01:22:20;20.90;99.90
12166;DHT22;6146;48.128;11.476;2022-07-21T01:24:46;20.90;99.90
12166;DHT22;6146;48.128;11.476;2022-07-21T01:27:11;20.80;99.90
12166;DHT22;6146;48.128;11.476;2022-07-21T01:29:37;20.80;99.90
12166;DHT22;6146;48.128;11.476;2022-07-21T01:32:03;20.90;99.90
12166;DHT22;6146;48.128;11.476;2022-07-21T01:34:29;20.80;99.90
12166;DHT22;6146;48.128;11.476;2022-07-21T01:36:55;20.80;99.90
12166;DHT22;6146;48.128;11.476;2022-07-21T01:39:20;20.90;99.90
12166;DHT22;6146;48.128;11.476;2022-07-21T01:42:05;20.90;99.90
12166;DHT22;6146;48.128;11.476;2022-07-21T01:44:30;20.90;99.90
12166;DHT22;6146;48.128;11.476;2022-07-21T01:46:56;20.90;99.90
12166;DHT22;6146;48.128;11.476;2022-07-21T01:49:22;21.00;99.90
12166;DHT22;6146;48.128;11.476;2022-07-21T01:51:49;20.90;99.90
12166;DHT22;6146;48.128;11.476;2022-07-21T01:54:15;20.90;99.90
12166;DHT22;6146;48.128;11.476;2022-07-21T01:56:40;20.90;99.90
12166;DHT22;6146;48.128;11.476;2022-07-21T01:59:06;20.80;99.90
12166;DHT22;6146;48.128;11.476;2022-07-21T02:01:32;20.90;99.90
12166;DHT22;6146;48.128;11.476;2022-07-21T02:04:01;20.90;99.90
12166;DHT22;6146;48.128;11.476;2022-07-21T02:06:27;20.90;99.90
12166;DHT22;6146;48.128;11.476;2022-07-21T02:08:53;20.90;99.90
12166;DHT22;6146;48.128;11.476;2022-07-21T02:11:19;20.90;99.90
12166;DHT22;6146;48.128;11.476;2022-07-21T02:13:45;21.10;99.90
12166;DHT22;6146;48.128;11.476;2022-07-21T02:16:11;21.00;99.90
12166;DHT22;6146;48.128;11.476;2022-07-21T02:18:37;20.90;99.90
12166;DHT22;6146;48.128;11.476;2022-07-21T02:21:04;20.90;99.90
12166;DHT22;6146;48.128;11.476;2022-07-21T02:23:30;20.90;99.90
12166;DHT22;6146;48.128;11.476;2022-07-21T02:25:56;20.90;99.90
12166;DHT22;6146;48.128;11.476;2022-07-21T02:28:22;20.90;99.90
12166;DHT22;6146;48.128;11.476;2022-07-21T02:30:48;20.80;99.90
12166;DHT22;6146;48.128;11.476;2022-07-21T02:33:14;20.80;99.90
12166;DHT22;6146;48.128;11.476;2022-07-21T02:35:41;20.80;99.90
12166;DHT22;6146;48.128;11.476;2022-07-21T02:38:07;20.70;99.90
12166;DHT22;6146;48.128;11.476;2022-07-21T02:40:33;20.70;99.90
12166;DHT22;6146;48.128;11.476;2022-07-21T02:42:59;20.70;99.90
12166;DHT22;6146;48.128;11.476;2022-07-21T02:45:25;20.60;99.90
12166;DHT22;6146;48.128;11.476;2022-07-21T02:47:53;20.60;99.90
12166;DHT22;6146;48.128;11.476;2022-07-21T02:50:20;20.60;99.90
12166;DHT22;6146;48.128;11.476;2022-07-21T02:52:47;20.60;99.90
12166;DHT22;6146;48.128;11.476;2022-07-21T02:55:13;20.60;99.90
12166;DHT22;6146;48.128;11.476;2022-07-21T02:57:38;20.70;99.90
12166;DHT22;6146;48.128;11.476;2022-07-21T03:00:06;20.60;99.90
12166;DHT22;6146;48.128;11.476;2022-07-21T03:02:33;20.60;99.90
12166;DHT22;6146;48.128;11.476;2022-07-21T03:04:59;20.70;99.90
12166;DHT22;6146;48.128;11.476;2022-07-21T03:07:25;20.70;99.90
12166;DHT22;6146;48.128;11.476;2022-07-21T03:09:50;20.70;99.90
12166;DHT22;6146;48.128;11.476;2022-07-21T03:12:16;20.70;99.90
12166;DHT22;6146;48.128;11.476;2022-07-21T03:14:41;20.70;99.90
12166;DHT22;6146;48.128;11.476;2022-07-21T03:17:07;20.70;99.90
12166;DHT22;6146;48.128;11.476;2022-07-21T03:19:32;20.60;99.90
12166;DHT22;6146;48.128;11.476;2022-07-21T03:21:58;20.60;99.90
12166;DHT22;6146;48.128;11.476;2022-07-21T03:24:24;20.60;99.90
12166;DHT22;6146;48.128;11.476;2022-07-21T03:26:50;20.60;99.90
12166;DHT22;6146;48.128;11.476;2022-07-21T03:29:15;20.60;99.90
12166;DHT22;6146;48.128;11.476;2022-07-21T03:31:41;20.70;99.90
12166;DHT22;6146;48.128;11.476;2022-07-21T03:34:06;20.70;99.90
12166;DHT22;6146;48.128;11.476;2022-07-21T03:36:32;20.80;99.90
12166;DHT22;6146;48.128;11.476;2022-07-21T03:38:58;20.80;99.90
12166;DHT22;6146;48.128;11.476;2022-07-21T03:41:23;20.90;99.90
12166;DHT22;6146;48.128;11.476;2022-07-21T03:43:49;21.00;99.90
12166;DHT22;6146;48.128;11.476;2022-07-21T03:46:15;21.00;99.90
12166;DHT22;6146;48.128;11.476;2022-07-21T03:48:40;21.00;99.90
12166;DHT22;6146;48.128;11.476;2022-07-21T03:51:06;21.00;99.90
12166;DHT22;6146;48.128;11.476;2022-07-21T03:53:31;21.00;99.90
12166;DHT22;6146;48.128;11.476;2022-07-21T03:55:57;20.90;99.90
12166;DHT22;6146;48.128;11.476;2022-07-21T03:58:23;21.00;99.90
12166;DHT22;6146;48.128;11.476;2022-07-21T04:00:48;20.90;99.90
12166;DHT22;6146;48.128;11.476;2022-07-21T04:03:14;20.80;99.90
12166;DHT22;6146;48.128;11.476;2022-07-21T04:05:41;20.80;99.90
12166;DHT22;6146;48.128;11.476;2022-07-21T04:08:08;20.70;99.90
12166;DHT22;6146;48.128;11.476;2022-07-21T04:10:37;20.70;99.90
12166;DHT22;6146;48.128;11.476;2022-07-21T04:13:08;20.60;99.90
12166;DHT22;6146;48.128;11.476;2022-07-21T04:15:35;20.60;99.90
12166;DHT22;6146;48.128;11.476;2022-07-21T04:18:00;20.60;99.90
12166;DHT22;6146;48.128;11.476;2022-07-21T04:20:26;20.70;99.90
12166;DHT22;6146;48.128;11.476;2022-07-21T04:22:52;20.70;99.90
12166;DHT22;6146;48.128;11.476;2022-07-21T04:25:19;20.70;99.90
12166;DHT22;6146;48.128;11.476;2022-07-21T04:27:46;20.70;99.90
12166;DHT22;6146;48.128;11.476;2022-07-21T04:30:14;20.80;99.90
12166;DHT22;6146;48.128;11.476;2022-07-21T04:32:40;20.80;99.90
12166;DHT22;6146;48.128;11.476;2022-07-21T04:35:06;20.80;99.90
12166;DHT22;6146;48.128;11.476;2022-07-21T04:37:32;20.80;99.90
12166;DHT22;6146;48.128;11.476;2022-07-21T04:39:59;20.90;99.90
12166;DHT22;6146;48.128;11.476;2022-07-21T04:42:24;20.90;99.90
12166;DHT22;6146;48.128;11.476;2022-07-21T04:44:50;21.00;99.90
12166;DHT22;6146;48.128;11.476;2022-07-21T04:47:15;21.00;99.90
12166;DHT22;6146;48.128;11.476;2022-07-21T04:49:41;21.00;99.90
12166;DHT22;6146;48.128;11.476;2022-07-21T04:52:07;21.00;99.90
12166;DHT22;6146;48.128;11.476;2022-07-21T04:54:32;21.10;99.90
12166;DHT22;6146;48.128;11.476;2022-07-21T04:56:58;21.10;99.90
12166;DHT22;6146;48.128;11.476;2022-07-21T04:59:24;21.10;99.90
12166;DHT22;6146;48.128;11.476;2022-07-21T05:01:50;21.10;99.90
12166;DHT22;6146;48.128;11.476;2022-07-21T05:04:16;21.00;99.90
12166;DHT22;6146;48.128;11.476;2022-07-21T05:06:41;21.00;99.90
12166;DHT22;6146;48.128;11.476;2022-07-21T05:09:07;21.00;99.90
12166;DHT22;6146;48.128;11.476;2022-07-21T05:11:32;21.10;99.90
12166;DHT22;6146;48.128;11.476;2022-07-21T05:13:58;21.00;99.90
12166;DHT22;6146;48.128;11.476;2022-07-21T05:16:24;21.00;99.90
12166;DHT22;6146;48.128;11.476;2022-07-21T05:18:49;21.00;99.90
12166;DHT22;6146;48.128;11.476;2022-07-21T05:21:15;21.00;99.90
12166;DHT22;6146;48.128;11.476;2022-07-21T05:23:41;21.10;99.90
12166;DHT22;6146;48.128;11.476;2022-07-21T05:26:06;21.20;99.90
12166;DHT22;6146;48.128;11.476;2022-07-21T05:28:32;21.30;99.90
12166;DHT22;6146;48.128;11.476;2022-07-21T05:30:57;21.40;99.90
12166;DHT22;6146;48.128;11.476;2022-07-21T05:33:23;21.30;99.90
12166;DHT22;6146;48.128;11.476;2022-07-21T05:35:49;21.30;99.90
12166;DHT22;6146;48.128;11.476;2022-07-21T05:38:14;21.40;99.90
12166;DHT22;6146;48.128;11.476;2022-07-21T05:40:40;21.60;99.90
12166;DHT22;6146;48.128;11.476;2022-07-21T05:43:06;21.70;99.90
12166;DHT22;6146;48.128;11.476;2022-07-21T05:45:31;21.90;99.90
12166;DHT22;6146;48.128;11.476;2022-07-21T05:47:57;22.10;99.90
12166;DHT22;6146;48.128;11.476;2022-07-21T05:50:22;22.30;99.90
12166;DHT22;6146;48.128;11.476;2022-07-21T05:52:48;22.50;99.90
12166;DHT22;6146;48.128;11.476;2022-07-21T05:55:13;22.50;99.90
12166;DHT22;6146;48.128;11.476;2022-07-21T05:57:39;22.60;99.90
12166;DHT22;6146;48.128;11.476;2022-07-21T06:00:06;22.60;99.90
12166;DHT22;6146;48.128;11.476;2022-07-21T06:02:32;22.60;99.90
12166;DHT22;6146;48.128;11.476;2022-07-21T06:04:58;22.60;99.90
12166;DHT22;6146;48.128;11.476;2022-07-21T06:07:24;22.60;99.90
12166;DHT22;6146;48.128;11.476;2022-07-21T06:09:49;22.80;99.90
12166;DHT22;6146;48.128;11.476;2022-07-21T06:12:15;23.00;99.90
12166;DHT22;6146;48.128;11.476;2022-07-21T06:14:41;23.20;99.90
12166;DHT22;6146;48.128;11.476;2022-07-21T06:17:16;23.40;99.90
12166;DHT22;6146;48.128;11.476;2022-07-21T06:19:45;23.60;99.90
12166;DHT22;6146;48.128;11.476;2022-07-21T06:22:15;23.50;99.90
12166;DHT22;6146;48.128;11.476;2022-07-21T06:24:44;23.40;99.90
12166;DHT22;6146;48.128;11.476;2022-07-21T06:29:38;23.30;99.90
12166;DHT22;6146;48.128;11.476;2022-07-21T06:32:04;23.10;99.90
12166;DHT22;6146;48.128;11.476;2022-07-21T06:34:29;23.00;99.90
12166;DHT22;6146;48.128;11.476;2022-07-21T06:36:55;22.80;99.90
12166;DHT22;6146;48.128;11.476;2022-07-21T06:39:20;22.70;99.90
12166;DHT22;6146;48.128;11.476;2022-07-21T06:41:46;22.80;99.90
12166;DHT22;6146;48.128;11.476;2022-07-21T06:44:11;22.90;99.90
12166;DHT22;6146;48.128;11.476;2022-07-21T06:46:37;22.80;99.90
12166;DHT22;6146;48.128;11.476;2022-07-21T06:49:03;22.80;99.90
12166;DHT22;6146;48.128;11.476;2022-07-21T06:51:29;22.90;99.90
12166;DHT22;6146;48.128;11.476;2022-07-21T06:53:55;22.90;99.90
12166;DHT22;6146;48.128;11.476;2022-07-21T06:56:20;23.10;99.90
12166;DHT22;6146;48.128;11.476;2022-07-21T06:58:48;23.30;99.90
12166;DHT22;6146;48.128;11.476;2022-07-21T07:01:13;23.30;99.90
12166;DHT22;6146;48.128;11.476;2022-07-21T07:03:43;23.30;99.90
12166;DHT22;6146;48.128;11.476;2022-07-21T07:06:09;23.20;99.90
12166;DHT22;6146;48.128;11.476;2022-07-21T07:08:34;23.20;99.90
12166;DHT22;6146;48.128;11.476;2022-07-21T07:11:00;23.20;99.90
12166;DHT22;6146;48.128;11.476;2022-07-21T07:13:26;23.00;99.90
12166;DHT22;6146;48.128;11.476;2022-07-21T07:15:51;23.10;99.90
12166;DHT22;6146;48.128;11.476;2022-07-21T07:18:17;23.40;99.90
12166;DHT22;6146;48.128;11.476;2022-07-21T07:20:42;23.60;99.90
12166;DHT22;6146;48.128;11.476;2022-07-21T07:23:08;23.80;99.90
12166;DHT22;6146;48.128;11.476;2022-07-21T07:25:33;24.10;99.90
12166;DHT22;6146;48.128;11.476;2022-07-21T07:27:59;24.40;99.90
12166;DHT22;6146;48.128;11.476;2022-07-21T07:30:26;24.70;99.90
12166;DHT22;6146;48.128;11.476;2022-07-21T07:32:52;24.90;99.90
12166;DHT22;6146;48.128;11.476;2022-07-21T07:35:17;25.40;99.90
12166;DHT22;6146;48.128;11.476;2022-07-21T07:37:45;25.80;99.90
12166;DHT22;6146;48.128;11.476;2022-07-21T07:40:16;26.10;99.90
12166;DHT22;6146;48.128;11.476;2022-07-21T07:42:43;26.20;99.90
12166;DHT22;6146;48.128;11.476;2022-07-21T07:45:09;26.10;99.90
12166;DHT22;6146;48.128;11.476;2022-07-21T07:47:35;26.00;99.90
12166;DHT22;6146;48.128;11.476;2022-07-21T07:50:01;26.00;99.90
12166;DHT22;6146;48.128;11.476;2022-07-21T07:52:26;26.00;99.90
12166;DHT22;6146;48.128;11.476;2022-07-21T07:54:53;25.60;99.90
12166;DHT22;6146;48.128;11.476;2022-07-21T07:57:19;25.20;99.90
12166;DHT22;6146;48.128;11.476;2022-07-21T07:59:45;25.20;99.90
12166;DHT22;6146;48.128;11.476;2022-07-21T08:02:10;25.50;99.90
12166;DHT22;6146;48.128;11.476;2022-07-21T08:04:36;26.10;99.90
12166;DHT22;6146;48.128;11.476;2022-07-21T08:07:03;26.40;99.90
12166;DHT22;6146;48.128;11.476;2022-07-21T08:09:29;26.60;99.90
12166;DHT22;6146;48.128;11.476;2022-07-21T08:11:54;26.70;99.90
12166;DHT22;6146;48.128;11.476;2022-07-21T08:14:20;26.60;99.90
12166;DHT22;6146;48.128;11.476;2022-07-21T08:16:45;26.30;99.90
12166;DHT22;6146;48.128;11.476;2022-07-21T08:19:11;25.90;99.90
12166;DHT22;6146;48.128;11.476;2022-07-21T08:21:37;25.50;99.90
12166;DHT22;6146;48.128;11.476;2022-07-21T08:24:04;25.30;99.90
12166;DHT22;6146;48.128;11.476;2022-07-21T08:26:30;25.10;99.90
12166;DHT22;6146;48.128;11.476;2022-07-21T08:28:57;24.90;99.90
12166;DHT22;6146;48.128;11.476;2022-07-21T08:31:23;24.60;99.90
12166;DHT22;6146;48.128;11.476;2022-07-21T08:33:50;24.40;99.90
12166;DHT22;6146;48.128;11.476;2022-07-21T08:36:17;24.30;99.90
12166;DHT22;6146;48.128;11.476;2022-07-21T08:38:43;24.20;99.90
12166;DHT22;6146;48.128;11.476;2022-07-21T08:41:09;24.20;99.90
12166;DHT22;6146;48.128;11.476;2022-07-21T08:43:35;24.20;99.90
12166;DHT22;6146;48.128;11.476;2022-07-21T08:46:02;24.20;99.90
12166;DHT22;6146;48.128;11.476;2022-07-21T08:48:28;24.10;99.90
12166;DHT22;6146;48.128;11.476;2022-07-21T08:50:55;23.80;99.90
12166;DHT22;6146;48.128;11.476;2022-07-21T08:53:21;23.70;99.90
12166;DHT22;6146;48.128;11.476;2022-07-21T08:55:47;23.50;99.90
12166;DHT22;6146;48.128;11.476;2022-07-21T08:58:13;23.60;99.90
12166;DHT22;6146;48.128;11.476;2022-07-21T09:00:41;23.60;99.90
12166;DHT22;6146;48.128;11.476;2022-07-21T09:05:33;23.70;99.90
12166;DHT22;6146;48.128;11.476;2022-07-21T09:07:59;23.90;99.90
12166;DHT22;6146;48.128;11.476;2022-07-21T09:10:27;24.00;99.90
12166;DHT22;6146;48.128;11.476;2022-07-21T09:12:59;23.80;99.90
12166;DHT22;6146;48.128;11.476;2022-07-21T09:15:26;23.60;99.90
12166;DHT22;6146;48.128;11.476;2022-07-21T09:18:10;23.60;99.90
12166;DHT22;6146;48.128;11.476;2022-07-21T09:20:37;23.50;99.90
12166;DHT22;6146;48.128;11.476;2022-07-21T09:23:11;23.30;99.90
12166;DHT22;6146;48.128;11.476;2022-07-21T09:25:38;23.20;99.90
12166;DHT22;6146;48.128;11.476;2022-07-21T09:28:19;23.20;99.90
12166;DHT22;6146;48.128;11.476;2022-07-21T09:33:34;23.10;99.90
12166;DHT22;6146;48.128;11.476;2022-07-21T09:38:30;22.90;99.90
12166;DHT22;6146;48.128;11.476;2022-07-21T09:41:07;22.90;99.90
12166;DHT22;6146;48.128;11.476;2022-07-21T09:43:38;22.80;99.90
12166;DHT22;6146;48.128;11.476;2022-07-21T09:46:12;22.80;99.90
12166;DHT22;6146;48.128;11.476;2022-07-21T09:48:39;22.80;99.90
12166;DHT22;6146;48.128;11.476;2022-07-21T09:54:12;22.70;99.90
12166;DHT22;6146;48.128;11.476;2022-07-21T09:56:38;22.50;99.90
12166;DHT22;6146;48.128;11.476;2022-07-21T09:59:06;22.40;99.90
12166;DHT22;6146;48.128;11.476;2022-07-21T10:01:33;22.20;99.90
12166;DHT22;6146;48.128;11.476;2022-07-21T10:04:00;22.10;99.90
12166;DHT22;6146;48.128;11.476;2022-07-21T10:06:29;22.10;99.90
12166;DHT22;6146;48.128;11.476;2022-07-21T10:08:56;22.00;99.90
12166;DHT22;6146;48.128;11.476;2022-07-21T10:11:23;22.00;99.90
12166;DHT22;6146;48.128;11.476;2022-07-21T10:13:48;22.10;99.90
12166;DHT22;6146;48.128;11.476;2022-07-21T10:16:15;22.20;99.90
12166;DHT22;6146;48.128;11.476;2022-07-21T10:19:07;22.30;99.90
12166;DHT22;6146;48.128;11.476;2022-07-21T10:21:42;22.50;99.90
12166;DHT22;6146;48.128;11.476;2022-07-21T10:24:11;22.40;99.90
12166;DHT22;6146;48.128;11.476;2022-07-21T10:26:38;22.40;99.90
12166;DHT22;6146;48.128;11.476;2022-07-21T10:29:04;22.50;99.90
12166;DHT22;6146;48.128;11.476;2022-07-21T10:31:30;22.70;99.90
12166;DHT22;6146;48.128;11.476;2022-07-21T10:34:00;23.00;99.90
12166;DHT22;6146;48.128;11.476;2022-07-21T10:39:12;23.30;99.90
12166;DHT22;6146;48.128;11.476;2022-07-21T10:41:45;23.40;99.90
12166;DHT22;6146;48.128;11.476;2022-07-21T10:47:06;23.40;99.90
12166;DHT22;6146;48.128;11.476;2022-07-21T10:49:55;23.40;99.90
12166;DHT22;6146;48.128;11.476;2022-07-21T10:57:40;23.60;99.90
12166;DHT22;6146;48.128;11.476;2022-07-21T11:00:18;23.70;99.90
12166;DHT22;6146;48.128;11.476;2022-07-21T11:02:54;23.90;99.90
12166;DHT22;6146;48.128;11.476;2022-07-21T11:05:20;24.00;99.90
12166;DHT22;6146;48.128;11.476;2022-07-21T11:10:34;23.70;99.90
12166;DHT22;6146;48.128;11.476;2022-07-21T11:13:00;23.60;99.90
12166;DHT22;6146;48.128;11.476;2022-07-21T11:15:47;23.50;99.90
12166;DHT22;6146;48.128;11.476;2022-07-21T11:18:17;23.50;99.90
12166;DHT22;6146;48.128;11.476;2022-07-21T11:20:43;23.60;99.90
12166;DHT22;6146;48.128;11.476;2022-07-21T11:23:09;23.60;99.90
12166;DHT22;6146;48.128;11.476;2022-07-21T11:25:34;23.60;99.90
12166;DHT22;6146;48.128;11.476;2022-07-21T11:28:00;23.70;99.90
12166;DHT22;6146;48.128;11.476;2022-07-21T11:30:26;23.80;99.90
12166;DHT22;6146;48.128;11.476;2022-07-21T11:32:52;23.80;99.90
12166;DHT22;6146;48.128;11.476;2022-07-21T11:35:17;23.80;99.90
12166;DHT22;6146;48.128;11.476;2022-07-21T11:37:45;23.80;99.90
12166;DHT22;6146;48.128;11.476;2022-07-21T11:40:16;23.90;99.90
12166;DHT22;6146;48.128;11.476;2022-07-21T11:42:44;23.90;99.90
12166;DHT22;6146;48.128;11.476;2022-07-21T11:45:11;24.00;99.90
12166;DHT22;6146;48.128;11.476;2022-07-21T11:47:37;24.10;99.90
12166;DHT22;6146;48.128;11.476;2022-07-21T11:50:08;24.10;99.90
12166;DHT22;6146;48.128;11.476;2022-07-21T11:52:36;24.20;99.90
12166;DHT22;6146;48.128;11.476;2022-07-21T11:55:04;24.20;99.90
12166;DHT22;6146;48.128;11.476;2022-07-21T11:57:30;24.20;99.90
12166;DHT22;6146;48.128;11.476;2022-07-21T11:59:58;24.20;99.90
12166;DHT22;6146;48.128;11.476;2022-07-21T12:02:26;24.10;99.90
12166;DHT22;6146;48.128;11.476;2022-07-21T12:04:56;24.10;99.90
12166;DHT22;6146;48.128;11.476;2022-07-21T12:07:32;24.10;99.90
12166;DHT22;6146;48.128;11.476;2022-07-21T12:10:00;24.20;99.90
12166;DHT22;6146;48.128;11.476;2022-07-21T12:12:39;24.40;99.90
12166;DHT22;6146;48.128;11.476;2022-07-21T12:17:51;24.50;99.90
12166;DHT22;6146;48.128;11.476;2022-07-21T12:20:31;24.70;99.90
12166;DHT22;6146;48.128;11.476;2022-07-21T12:23:07;24.80;99.90
12166;DHT22;6146;48.128;11.476;2022-07-21T12:25:42;24.90;99.90
12166;DHT22;6146;48.128;11.476;2022-07-21T12:28:08;24.90;99.90
12166;DHT22;6146;48.128;11.476;2022-07-21T12:30:40;24.80;99.90
12166;DHT22;6146;48.128;11.476;2022-07-21T12:33:11;24.90;99.90
12166;DHT22;6146;48.128;11.476;2022-07-21T12:35:39;25.10;99.90
12166;DHT22;6146;48.128;11.476;2022-07-21T12:40:36;25.40;99.90
12166;DHT22;6146;48.128;11.476;2022-07-21T12:45:47;25.60;99.90
12166;DHT22;6146;48.128;11.476;2022-07-21T12:48:16;25.80;99.90
12166;DHT22;6146;48.128;11.476;2022-07-21T12:50:42;26.00;99.90
12166;DHT22;6146;48.128;11.476;2022-07-21T12:53:21;26.10;99.90
12166;DHT22;6146;48.128;11.476;2022-07-21T12:55:46;26.10;99.90
12166;DHT22;6146;48.128;11.476;2022-07-21T12:58:12;26.20;99.90
12166;DHT22;6146;48.128;11.476;2022-07-21T13:00:38;26.20;99.90
12166;DHT22;6146;48.128;11.476;2022-07-21T13:03:03;26.30;99.90
12166;DHT22;6146;48.128;11.476;2022-07-21T13:05:29;26.50;99.90
12166;DHT22;6146;48.128;11.476;2022-07-21T13:07:54;26.60;99.90
12166;DHT22;6146;48.128;11.476;2022-07-21T13:10:20;26.70;99.90
12166;DHT22;6146;48.128;11.476;2022-07-21T13:12:46;26.80;99.90
12166;DHT22;6146;48.128;11.476;2022-07-21T13:15:12;26.90;99.90
12166;DHT22;6146;48.128;11.476;2022-07-21T13:17:38;27.00;99.90
12166;DHT22;6146;48.128;11.476;2022-07-21T13:20:04;26.90;99.90
12166;DHT22;6146;48.128;11.476;2022-07-21T13:22:30;26.90;99.90
12166;DHT22;6146;48.128;11.476;2022-07-21T13:24:56;27.00;99.90
12166;DHT22;6146;48.128;11.476;2022-07-21T13:27:21;26.90;99.90
12166;DHT22;6146;48.128;11.476;2022-07-21T13:29:47;27.10;99.90
12166;DHT22;6146;48.128;11.476;2022-07-21T13:32:13;27.20;99.90
12166;DHT22;6146;48.128;11.476;2022-07-21T13:34:38;27.00;99.90
12166;DHT22;6146;48.128;11.476;2022-07-21T13:37:04;26.90;99.90
12166;DHT22;6146;48.128;11.476;2022-07-21T13:39:29;27.00;99.90
12166;DHT22;6146;48.128;11.476;2022-07-21T13:41:56;27.00;99.90
12166;DHT22;6146;48.128;11.476;2022-07-21T13:44:22;26.90;99.90
12166;DHT22;6146;48.128;11.476;2022-07-21T13:46:48;26.80;99.90
12166;DHT22;6146;48.128;11.476;2022-07-21T13:49:14;26.60;99.90
12166;DHT22;6146;48.128;11.476;2022-07-21T13:51:39;26.30;99.90
12166;DHT22;6146;48.128;11.476;2022-07-21T13:54:05;26.40;99.90
12166;DHT22;6146;48.128;11.476;2022-07-21T13:56:31;26.20;99.90
12166;DHT22;6146;48.128;11.476;2022-07-21T13:58:56;26.10;99.90
12166;DHT22;6146;48.128;11.476;2022-07-21T14:01:22;26.10;99.90
12166;DHT22;6146;48.128;11.476;2022-07-21T14:03:48;26.10;99.90
12166;DHT22;6146;48.128;11.476;2022-07-21T14:06:14;26.00;99.90
12166;DHT22;6146;48.128;11.476;2022-07-21T14:08:40;26.10;99.90
12166;DHT22;6146;48.128;11.476;2022-07-21T14:11:07;26.10;99.90
12166;DHT22;6146;48.128;11.476;2022-07-21T14:13:33;26.20;99.90
12166;DHT22;6146;48.128;11.476;2022-07-21T14:15:59;26.30;99.90
12166;DHT22;6146;48.128;11.476;2022-07-21T14:18:25;26.20;99.90
12166;DHT22;6146;48.128;11.476;2022-07-21T14:20:51;26.20;99.90
12166;DHT22;6146;48.128;11.476;2022-07-21T14:23:20;26.40;99.90
12166;DHT22;6146;48.128;11.476;2022-07-21T14:25:47;26.60;99.90
12166;DHT22;6146;48.128;11.476;2022-07-21T14:28:13;26.60;99.90
12166;DHT22;6146;48.128;11.476;2022-07-21T14:30:38;26.40;99.90
12166;DHT22;6146;48.128;11.476;2022-07-21T14:33:04;26.20;99.90
12166;DHT22;6146;48.128;11.476;2022-07-21T14:35:30;26.20;99.90
12166;DHT22;6146;48.128;11.476;2022-07-21T14:37:55;26.10;99.90
12166;DHT22;6146;48.128;11.476;2022-07-21T14:40:22;26.20;99.70
12166;DHT22;6146;48.128;11.476;2022-07-21T14:42:49;26.10;98.60
12166;DHT22;6146;48.128;11.476;2022-07-21T14:45:17;26.20;99.00
12166;DHT22;6146;48.128;11.476;2022-07-21T14:47:43;26.20;98.80
12166;DHT22;6146;48.128;11.476;2022-07-21T14:50:09;26.20;98.00
12166;DHT22;6146;48.128;11.476;2022-07-21T14:52:35;26.40;98.30
12166;DHT22;6146;48.128;11.476;2022-07-21T14:55:00;26.60;98.20
12166;DHT22;6146;48.128;11.476;2022-07-21T14:57:26;26.80;97.90
12166;DHT22;6146;48.128;11.476;2022-07-21T14:59:53;26.80;97.90
12166;DHT22;6146;48.128;11.476;2022-07-21T15:02:18;26.80;97.10
12166;DHT22;6146;48.128;11.476;2022-07-21T15:04:44;26.80;96.80
12166;DHT22;6146;48.128;11.476;2022-07-21T15:07:10;26.70;97.30
12166;DHT22;6146;48.128;11.476;2022-07-21T15:09:35;26.50;98.40
12166;DHT22;6146;48.128;11.476;2022-07-21T15:12:01;26.40;98.50
12166;DHT22;6146;48.128;11.476;2022-07-21T15:14:26;26.30;98.40
12166;DHT22;6146;48.128;11.476;2022-07-21T15:16:52;26.20;99.00
12166;DHT22;6146;48.128;11.476;2022-07-21T15:19:17;26.30;99.30
12166;DHT22;6146;48.128;11.476;2022-07-21T15:21:43;26.60;98.50
12166;DHT22;6146;48.128;11.476;2022-07-21T15:24:09;26.90;97.90
12166;DHT22;6146;48.128;11.476;2022-07-21T15:26:35;27.20;97.80
12166;DHT22;6146;48.128;11.476;2022-07-21T15:29:00;27.40;98.10
12166;DHT22;6146;48.128;11.476;2022-07-21T15:31:30;27.40;98.30
12166;DHT22;6146;48.128;11.476;2022-07-21T15:33:56;27.40;98.40
12166;DHT22;6146;48.128;11.476;2022-07-21T15:36:22;27.70;97.10
12166;DHT22;6146;48.128;11.476;2022-07-21T15:38:47;27.70;97.30
12166;DHT22;6146;48.128;11.476;2022-07-21T15:41:13;27.50;98.40
12166;DHT22;6146;48.128;11.476;2022-07-21T15:43:39;27.20;98.80
12166;DHT22;6146;48.128;11.476;2022-07-21T15:46:05;27.20;99.20
12166;DHT22;6146;48.128;11.476;2022-07-21T15:48:30;27.20;98.30
12166;DHT22;6146;48.128;11.476;2022-07-21T15:50:56;27.10;98.70
12166;DHT22;6146;48.128;11.476;2022-07-21T15:53:21;27.00;98.60
12166;DHT22;6146;48.128;11.476;2022-07-21T15:55:47;27.00;98.60
12166;DHT22;6146;48.128;11.476;2022-07-21T15:58:13;27.10;98.60
12166;DHT22;6146;48.128;11.476;2022-07-21T16:00:38;27.10;97.40
12166;DHT22;6146;48.128;11.476;2022-07-21T16:03:04;27.00;98.10